METAR Analyzer

一覧表示

Hello, Guest. (Login)

TNCM/SXM  -  プリンセス・ジュリアナ/セントマーティン

観測日時
2021-05-15 17:00 (UTC) (70分前)
気温
30
露点
24
湿数
6
相対湿度
70.3%
QNH
1017hPa
推定現地気圧
1016.5hPa
推定海面気圧
1017.0hPa
体感温度
24.6
(無風時)
28.3
HI
35.1
気温前日比
±0
体感温度前日比
±0
HI前日比
+1
水平視程
>10000m
鉛直視程
データなし
雲底高度
No dense clouds
V/I
VMC (VFR)
RVR
No RVR data
卓越風
13kt from 120°
ガスト
No gust
降水
報告なし
その他の天気
報告なし
散在する雲 @ 2000ft AGL

TNCM 151700Z 12013KT 9999 SCT020 30/24 Q1017 RERA NOSIG

TIST/STT  -  シリル・E・キング

観測日時
2021-05-15 17:53 (UTC) (17分前)
気温
29.4
露点
22.2
湿数
7.2
相対湿度
65.3%
QNH
1014.9hPa
推定現地気圧
1014.1hPa
推定海面気圧
1014.9hPa
体感温度
23.7
(無風時)
27.5
HI
32.7
気温前日比
±0
体感温度前日比
+0.3
HI前日比
+0.4
水平視程
>10SM
鉛直視程
データなし
雲底高度
No dense clouds
V/I
VMC (VFR)
RVR
No RVR data
卓越風
11kt from 130°
ガスト
No gust
降水
報告なし
その他の天気
報告なし
少しの雲 @ 5500ft AGL / 少しの雲 @ 8500ft AGL

TIST 151753Z 13011KT 10SM FEW055 FEW085 29/22 A2997 RMK AO2 SLP150 60003 T02940222 10300 20267 58014

MUHA/HAV  -  ホセ・マルティ

観測日時
2021-05-15 17:55 (UTC) (15分前)
気温
31
露点
21
湿数
10
相対湿度
55.3%
QNH
1017hPa
推定現地気圧
1009.3hPa
推定海面気圧
1016.6hPa
体感温度
24.8
(無風時)
27.9
HI
33.7
気温前日比
±0
体感温度前日比
-0.2
HI前日比
+0.7
水平視程
9000m
鉛直視程
データなし
雲底高度
3000ft AGL
V/I
VMC (VFR)
RVR
No RVR data
卓越風
14kt from 30° (350° ~ 60°)
ガスト
No gust
降水
報告なし
その他の天気
報告なし
隙間のある雲 @ 3000ft AGL

MUHA 151755Z 03014KT 350V060 9000 BKN030 31/21 Q1017

MDSD/SDQ  -  ラス・アメリカス

観測日時
2021-05-15 18:00 (UTC) (10分前)
気温
31
露点
25
湿数
6
相対湿度
70.5%
QNH
1014hPa
推定現地気圧
1012.0hPa
推定海面気圧
1013.9hPa
体感温度
26
(無風時)
29.1
HI
37.7
気温前日比
±0
体感温度前日比
+0.2
HI前日比
+2.2
水平視程
>10000m
鉛直視程
データなし
雲底高度
No dense clouds
V/I
VMC (VFR)
RVR
No RVR data
卓越風
12kt from 180°
ガスト
No gust
降水
報告なし
その他の天気
報告なし
少しの積乱雲 @ 2000ft AGL / 少しの雲 @ 2200ft AGL

MDSD 151800Z 18012KT 9999 FEW020CB FEW022 31/25 Q1014 CB/NE

MDPC/PUJ  -  プンタ・カーナ

観測日時
2021-05-15 18:00 (UTC) (10分前)
気温
30
露点
22
湿数
8
相対湿度
62.3%
QNH
1015hPa
推定現地気圧
1013.3hPa
推定海面気圧
1014.9hPa
体感温度
24.3
(無風時)
27.7
HI
33.3
気温前日比
+1
体感温度前日比
+0.7
HI前日比
+1.3
水平視程
>10000m
鉛直視程
データなし
雲底高度
No dense clouds
V/I
VMC (VFR)
RVR
No RVR data
卓越風
10kt from 120°
ガスト
No gust
降水
報告なし
その他の天気
報告なし
少しの雲 @ 2300ft AGL

MDPC 151800Z 12010KT 9999 FEW023 30/22 Q1015

TJSJ/SJU  -  ルイス・ムニョス・マリン

観測日時
2021-05-15 17:56 (UTC) (14分前)
気温
32.2
露点
19.4
湿数
12.8
相対湿度
46.8%
QNH
1014.2hPa
推定現地気圧
1013.8hPa
推定海面気圧
1014.1hPa
体感温度
26
(無風時)
28
HI
34
気温前日比
+1.6
体感温度前日比
+1.6
HI前日比
-0.2
水平視程
>10SM
鉛直視程
データなし
雲底高度
No dense clouds
V/I
VMC (VFR)
RVR
No RVR data
卓越風
7kt from 110° (90° ~ 160°)
ガスト
No gust
降水
報告なし
その他の天気
報告なし
少しの雲 @ 5000ft AGL / 散在する雲 @ 8500ft AGL / 散在する雲 @ 12000ft AGL

TJSJ 151756Z 11007KT 090V160 10SM FEW050 SCT085 SCT120 32/19 A2995 RMK AO2 RAE03 SLP142 P0000 60016 T03220194 10322 20267 58019

7msec